sensor_id;sensor_type;location;lat;lon;timestamp;temperature;humidity
11908;DHT22;6014;47.690;9.130;2022-08-01T00:01:35;17.30;99.90
11908;DHT22;6014;47.690;9.130;2022-08-01T00:04:06;17.30;99.90
11908;DHT22;6014;47.690;9.130;2022-08-01T00:06:35;17.20;99.90
11908;DHT22;6014;47.690;9.130;2022-08-01T00:09:03;17.10;99.90
11908;DHT22;6014;47.690;9.130;2022-08-01T00:11:32;17.10;99.90
11908;DHT22;6014;47.690;9.130;2022-08-01T00:14:00;17.00;99.90
11908;DHT22;6014;47.690;9.130;2022-08-01T00:16:29;17.00;99.90
11908;DHT22;6014;47.690;9.130;2022-08-01T00:18:57;17.00;99.90
11908;DHT22;6014;47.690;9.130;2022-08-01T00:21:27;17.10;99.90
11908;DHT22;6014;47.690;9.130;2022-08-01T00:23:56;17.00;99.90
11908;DHT22;6014;47.690;9.130;2022-08-01T00:26:24;17.00;99.90
11908;DHT22;6014;47.690;9.130;2022-08-01T00:28:53;17.00;99.90
11908;DHT22;6014;47.690;9.130;2022-08-01T00:31:22;17.00;99.90
11908;DHT22;6014;47.690;9.130;2022-08-01T00:33:52;17.00;99.90
11908;DHT22;6014;47.690;9.130;2022-08-01T00:36:21;17.00;99.90
11908;DHT22;6014;47.690;9.130;2022-08-01T00:38:52;16.90;99.90
11908;DHT22;6014;47.690;9.130;2022-08-01T00:41:21;16.80;99.90
11908;DHT22;6014;47.690;9.130;2022-08-01T00:43:50;16.80;99.90
11908;DHT22;6014;47.690;9.130;2022-08-01T00:46:20;16.90;99.90
11908;DHT22;6014;47.690;9.130;2022-08-01T00:48:49;16.90;99.90
11908;DHT22;6014;47.690;9.130;2022-08-01T00:51:17;17.00;99.90
11908;DHT22;6014;47.690;9.130;2022-08-01T00:53:46;17.00;99.90
11908;DHT22;6014;47.690;9.130;2022-08-01T00:56:20;17.00;99.90
11908;DHT22;6014;47.690;9.130;2022-08-01T00:58:52;16.90;99.90
11908;DHT22;6014;47.690;9.130;2022-08-01T01:01:25;16.90;99.90
11908;DHT22;6014;47.690;9.130;2022-08-01T01:04:05;16.80;99.90
11908;DHT22;6014;47.690;9.130;2022-08-01T01:06:42;16.80;99.90
11908;DHT22;6014;47.690;9.130;2022-08-01T01:09:30;16.70;99.90
11908;DHT22;6014;47.690;9.130;2022-08-01T01:12:18;16.70;99.90
11908;DHT22;6014;47.690;9.130;2022-08-01T01:14:57;16.80;99.90
11908;DHT22;6014;47.690;9.130;2022-08-01T01:17:39;16.70;99.90
11908;DHT22;6014;47.690;9.130;2022-08-01T01:20:24;16.70;99.90
11908;DHT22;6014;47.690;9.130;2022-08-01T01:23:10;16.80;99.90
11908;DHT22;6014;47.690;9.130;2022-08-01T01:26:01;16.80;99.90
11908;DHT22;6014;47.690;9.130;2022-08-01T01:31:43;16.90;99.90
11908;DHT22;6014;47.690;9.130;2022-08-01T01:34:17;16.90;99.90
11908;DHT22;6014;47.690;9.130;2022-08-01T01:36:50;16.80;99.90
11908;DHT22;6014;47.690;9.130;2022-08-01T01:39:20;16.80;99.90
11908;DHT22;6014;47.690;9.130;2022-08-01T01:41:50;16.80;99.90
11908;DHT22;6014;47.690;9.130;2022-08-01T01:44:21;16.70;99.90
11908;DHT22;6014;47.690;9.130;2022-08-01T01:46:52;16.70;99.90
11908;DHT22;6014;47.690;9.130;2022-08-01T01:49:21;16.80;99.90
11908;DHT22;6014;47.690;9.130;2022-08-01T01:52:00;16.90;99.90
11908;DHT22;6014;47.690;9.130;2022-08-01T01:54:33;17.00;99.90
11908;DHT22;6014;47.690;9.130;2022-08-01T01:57:05;17.00;99.90
11908;DHT22;6014;47.690;9.130;2022-08-01T01:59:38;17.10;99.90
11908;DHT22;6014;47.690;9.130;2022-08-01T02:02:08;17.10;99.90
11908;DHT22;6014;47.690;9.130;2022-08-01T02:04:41;17.10;99.90
11908;DHT22;6014;47.690;9.130;2022-08-01T02:07:12;17.10;99.90
11908;DHT22;6014;47.690;9.130;2022-08-01T02:09:43;17.10;99.90
11908;DHT22;6014;47.690;9.130;2022-08-01T02:12:16;17.10;99.90
11908;DHT22;6014;47.690;9.130;2022-08-01T02:14:48;17.10;99.90
11908;DHT22;6014;47.690;9.130;2022-08-01T02:17:20;17.10;99.90
11908;DHT22;6014;47.690;9.130;2022-08-01T02:19:50;17.10;99.90
11908;DHT22;6014;47.690;9.130;2022-08-01T02:22:23;17.00;99.90
11908;DHT22;6014;47.690;9.130;2022-08-01T02:24:59;17.10;99.90
11908;DHT22;6014;47.690;9.130;2022-08-01T02:27:33;17.00;99.90
11908;DHT22;6014;47.690;9.130;2022-08-01T02:30:08;16.90;99.90
11908;DHT22;6014;47.690;9.130;2022-08-01T02:32:42;16.80;99.90
11908;DHT22;6014;47.690;9.130;2022-08-01T02:35:13;16.80;99.90
11908;DHT22;6014;47.690;9.130;2022-08-01T02:37:48;16.70;99.90
11908;DHT22;6014;47.690;9.130;2022-08-01T02:40:17;16.60;99.90
11908;DHT22;6014;47.690;9.130;2022-08-01T02:42:49;16.60;99.90
11908;DHT22;6014;47.690;9.130;2022-08-01T02:45:25;16.50;99.90
11908;DHT22;6014;47.690;9.130;2022-08-01T02:47:57;16.50;99.90
11908;DHT22;6014;47.690;9.130;2022-08-01T02:50:29;16.50;99.90
11908;DHT22;6014;47.690;9.130;2022-08-01T02:53:00;16.40;99.90
11908;DHT22;6014;47.690;9.130;2022-08-01T02:55:30;16.30;99.90
11908;DHT22;6014;47.690;9.130;2022-08-01T02:58:01;16.20;99.90
11908;DHT22;6014;47.690;9.130;2022-08-01T03:00:33;16.20;99.90
11908;DHT22;6014;47.690;9.130;2022-08-01T03:03:03;16.30;99.90
11908;DHT22;6014;47.690;9.130;2022-08-01T03:05:35;16.30;99.90
11908;DHT22;6014;47.690;9.130;2022-08-01T03:08:04;16.40;99.90
11908;DHT22;6014;47.690;9.130;2022-08-01T03:10:47;16.40;99.90
11908;DHT22;6014;47.690;9.130;2022-08-01T03:13:17;16.40;99.90
11908;DHT22;6014;47.690;9.130;2022-08-01T03:15:50;16.40;99.90
11908;DHT22;6014;47.690;9.130;2022-08-01T03:18:19;16.40;99.90
11908;DHT22;6014;47.690;9.130;2022-08-01T03:20:49;16.40;99.90
11908;DHT22;6014;47.690;9.130;2022-08-01T03:23:21;16.40;99.90
11908;DHT22;6014;47.690;9.130;2022-08-01T03:26:05;16.50;99.90
11908;DHT22;6014;47.690;9.130;2022-08-01T03:31:06;16.50;99.90
11908;DHT22;6014;47.690;9.130;2022-08-01T03:33:34;16.50;99.90
11908;DHT22;6014;47.690;9.130;2022-08-01T03:36:05;16.50;99.90
11908;DHT22;6014;47.690;9.130;2022-08-01T03:38:39;16.50;99.90
11908;DHT22;6014;47.690;9.130;2022-08-01T03:41:11;16.50;99.90
11908;DHT22;6014;47.690;9.130;2022-08-01T03:43:46;16.50;99.90
11908;DHT22;6014;47.690;9.130;2022-08-01T03:46:24;16.40;99.90
11908;DHT22;6014;47.690;9.130;2022-08-01T03:48:56;16.40;99.90
11908;DHT22;6014;47.690;9.130;2022-08-01T03:51:27;16.40;99.90
11908;DHT22;6014;47.690;9.130;2022-08-01T03:54:00;16.40;99.90
11908;DHT22;6014;47.690;9.130;2022-08-01T03:56:30;16.40;99.90
11908;DHT22;6014;47.690;9.130;2022-08-01T03:59:00;16.30;99.90
11908;DHT22;6014;47.690;9.130;2022-08-01T04:01:32;16.30;99.90
11908;DHT22;6014;47.690;9.130;2022-08-01T04:04:02;16.30;99.90
11908;DHT22;6014;47.690;9.130;2022-08-01T04:06:32;16.40;99.90
11908;DHT22;6014;47.690;9.130;2022-08-01T04:09:01;16.40;99.90
11908;DHT22;6014;47.690;9.130;2022-08-01T04:11:29;16.40;99.90
11908;DHT22;6014;47.690;9.130;2022-08-01T04:13:59;16.40;99.90
11908;DHT22;6014;47.690;9.130;2022-08-01T04:16:37;16.40;99.90
11908;DHT22;6014;47.690;9.130;2022-08-01T04:19:06;16.40;99.90
11908;DHT22;6014;47.690;9.130;2022-08-01T04:21:41;16.40;99.90
11908;DHT22;6014;47.690;9.130;2022-08-01T04:24:13;16.30;99.90
11908;DHT22;6014;47.690;9.130;2022-08-01T04:26:46;16.30;99.90
11908;DHT22;6014;47.690;9.130;2022-08-01T04:29:17;16.30;99.90
11908;DHT22;6014;47.690;9.130;2022-08-01T04:31:49;16.20;99.90
11908;DHT22;6014;47.690;9.130;2022-08-01T04:34:22;16.20;99.90
11908;DHT22;6014;47.690;9.130;2022-08-01T04:36:52;16.20;99.90
11908;DHT22;6014;47.690;9.130;2022-08-01T04:39:24;16.20;99.90
11908;DHT22;6014;47.690;9.130;2022-08-01T04:41:54;16.30;99.90
11908;DHT22;6014;47.690;9.130;2022-08-01T04:44:24;16.40;99.90
11908;DHT22;6014;47.690;9.130;2022-08-01T04:47:01;16.40;99.90
11908;DHT22;6014;47.690;9.130;2022-08-01T04:49:31;16.60;99.90
11908;DHT22;6014;47.690;9.130;2022-08-01T04:52:15;16.60;99.90
11908;DHT22;6014;47.690;9.130;2022-08-01T04:54:51;16.70;99.90
11908;DHT22;6014;47.690;9.130;2022-08-01T04:57:19;16.80;99.90
11908;DHT22;6014;47.690;9.130;2022-08-01T04:59:48;16.90;99.90
11908;DHT22;6014;47.690;9.130;2022-08-01T05:02:25;17.10;99.90
11908;DHT22;6014;47.690;9.130;2022-08-01T05:04:55;17.20;99.90
11908;DHT22;6014;47.690;9.130;2022-08-01T05:07:24;17.30;99.90
11908;DHT22;6014;47.690;9.130;2022-08-01T05:09:52;17.40;99.90
11908;DHT22;6014;47.690;9.130;2022-08-01T05:12:21;17.40;99.90
11908;DHT22;6014;47.690;9.130;2022-08-01T05:14:49;17.60;99.90
11908;DHT22;6014;47.690;9.130;2022-08-01T05:17:18;17.80;99.90
11908;DHT22;6014;47.690;9.130;2022-08-01T05:19:48;17.80;99.90
11908;DHT22;6014;47.690;9.130;2022-08-01T05:22:16;17.90;99.90
11908;DHT22;6014;47.690;9.130;2022-08-01T05:24:45;17.90;99.90
11908;DHT22;6014;47.690;9.130;2022-08-01T05:27:16;17.90;99.90
11908;DHT22;6014;47.690;9.130;2022-08-01T05:29:45;17.80;99.90
11908;DHT22;6014;47.690;9.130;2022-08-01T05:32:14;17.80;99.90
11908;DHT22;6014;47.690;9.130;2022-08-01T05:34:42;17.80;99.90
11908;DHT22;6014;47.690;9.130;2022-08-01T05:37:12;17.80;99.90
11908;DHT22;6014;47.690;9.130;2022-08-01T05:39:43;18.10;99.90
11908;DHT22;6014;47.690;9.130;2022-08-01T05:42:12;18.40;99.90
11908;DHT22;6014;47.690;9.130;2022-08-01T05:44:44;18.60;99.90
11908;DHT22;6014;47.690;9.130;2022-08-01T05:47:14;19.10;99.90
11908;DHT22;6014;47.690;9.130;2022-08-01T05:49:42;19.30;99.90
11908;DHT22;6014;47.690;9.130;2022-08-01T05:52:12;19.90;99.90
11908;DHT22;6014;47.690;9.130;2022-08-01T05:54:41;20.10;99.90
11908;DHT22;6014;47.690;9.130;2022-08-01T05:57:09;20.70;99.90
11908;DHT22;6014;47.690;9.130;2022-08-01T05:59:38;21.00;99.90
11908;DHT22;6014;47.690;9.130;2022-08-01T06:02:06;21.70;99.90
11908;DHT22;6014;47.690;9.130;2022-08-01T06:04:36;22.00;99.90
11908;DHT22;6014;47.690;9.130;2022-08-01T06:07:04;22.20;99.90
11908;DHT22;6014;47.690;9.130;2022-08-01T06:09:34;22.40;99.90
11908;DHT22;6014;47.690;9.130;2022-08-01T06:12:03;22.40;99.90
11908;DHT22;6014;47.690;9.130;2022-08-01T06:14:33;22.30;99.90
11908;DHT22;6014;47.690;9.130;2022-08-01T06:17:03;22.20;99.90
11908;DHT22;6014;47.690;9.130;2022-08-01T06:19:31;22.40;99.90
11908;DHT22;6014;47.690;9.130;2022-08-01T06:22:00;22.80;99.90
11908;DHT22;6014;47.690;9.130;2022-08-01T06:24:28;23.30;99.90
11908;DHT22;6014;47.690;9.130;2022-08-01T06:26:58;23.10;99.90
11908;DHT22;6014;47.690;9.130;2022-08-01T06:29:29;23.20;99.90
11908;DHT22;6014;47.690;9.130;2022-08-01T06:31:58;23.30;99.90
11908;DHT22;6014;47.690;9.130;2022-08-01T06:34:26;23.70;99.90
11908;DHT22;6014;47.690;9.130;2022-08-01T06:36:55;23.90;99.90
11908;DHT22;6014;47.690;9.130;2022-08-01T06:39:24;23.90;99.90
11908;DHT22;6014;47.690;9.130;2022-08-01T06:41:52;24.10;99.90
11908;DHT22;6014;47.690;9.130;2022-08-01T06:44:22;23.90;99.90
11908;DHT22;6014;47.690;9.130;2022-08-01T06:46:51;24.30;99.90
11908;DHT22;6014;47.690;9.130;2022-08-01T06:49:19;24.80;99.90
11908;DHT22;6014;47.690;9.130;2022-08-01T06:51:48;25.00;99.90
11908;DHT22;6014;47.690;9.130;2022-08-01T06:54:16;25.00;99.90
11908;DHT22;6014;47.690;9.130;2022-08-01T06:56:45;25.50;99.90
11908;DHT22;6014;47.690;9.130;2022-08-01T06:59:14;25.50;99.90
11908;DHT22;6014;47.690;9.130;2022-08-01T07:01:44;25.60;99.90
11908;DHT22;6014;47.690;9.130;2022-08-01T07:04:12;25.70;99.90
11908;DHT22;6014;47.690;9.130;2022-08-01T07:06:41;26.00;99.90
11908;DHT22;6014;47.690;9.130;2022-08-01T07:09:09;25.70;99.90
11908;DHT22;6014;47.690;9.130;2022-08-01T07:11:41;25.70;97.70
11908;DHT22;6014;47.690;9.130;2022-08-01T07:14:09;25.90;96.60
11908;DHT22;6014;47.690;9.130;2022-08-01T07:16:45;26.20;94.70
11908;DHT22;6014;47.690;9.130;2022-08-01T07:19:14;26.60;92.30
11908;DHT22;6014;47.690;9.130;2022-08-01T07:21:42;26.90;91.80
11908;DHT22;6014;47.690;9.130;2022-08-01T07:24:15;27.30;91.40
11908;DHT22;6014;47.690;9.130;2022-08-01T07:26:48;27.70;91.20
11908;DHT22;6014;47.690;9.130;2022-08-01T07:29:21;27.60;81.60
11908;DHT22;6014;47.690;9.130;2022-08-01T07:31:52;27.90;87.00
11908;DHT22;6014;47.690;9.130;2022-08-01T07:34:22;27.90;81.50
11908;DHT22;6014;47.690;9.130;2022-08-01T07:36:52;28.20;82.50
11908;DHT22;6014;47.690;9.130;2022-08-01T07:39:21;27.90;80.10
11908;DHT22;6014;47.690;9.130;2022-08-01T07:41:49;27.50;81.50
11908;DHT22;6014;47.690;9.130;2022-08-01T07:44:33;27.50;79.40
11908;DHT22;6014;47.690;9.130;2022-08-01T07:47:04;27.00;82.20
11908;DHT22;6014;47.690;9.130;2022-08-01T07:49:33;26.80;84.50
11908;DHT22;6014;47.690;9.130;2022-08-01T07:52:06;27.20;82.80
11908;DHT22;6014;47.690;9.130;2022-08-01T07:54:35;27.60;79.70
11908;DHT22;6014;47.690;9.130;2022-08-01T07:57:04;27.50;78.20
11908;DHT22;6014;47.690;9.130;2022-08-01T07:59:32;27.90;80.70
11908;DHT22;6014;47.690;9.130;2022-08-01T08:02:02;28.50;81.50
11908;DHT22;6014;47.690;9.130;2022-08-01T08:04:33;28.70;72.30
11908;DHT22;6014;47.690;9.130;2022-08-01T08:07:01;28.80;73.10
11908;DHT22;6014;47.690;9.130;2022-08-01T08:09:30;29.00;72.90
11908;DHT22;6014;47.690;9.130;2022-08-01T08:12:05;29.20;68.40
11908;DHT22;6014;47.690;9.130;2022-08-01T08:14:34;29.10;69.40
11908;DHT22;6014;47.690;9.130;2022-08-01T08:17:04;29.10;71.10
11908;DHT22;6014;47.690;9.130;2022-08-01T08:19:33;29.10;66.50
11908;DHT22;6014;47.690;9.130;2022-08-01T08:22:05;29.10;64.60
11908;DHT22;6014;47.690;9.130;2022-08-01T08:24:35;29.20;65.40
11908;DHT22;6014;47.690;9.130;2022-08-01T08:27:12;29.40;64.30
11908;DHT22;6014;47.690;9.130;2022-08-01T08:29:41;28.70;64.50
11908;DHT22;6014;47.690;9.130;2022-08-01T08:32:12;28.40;66.50
11908;DHT22;6014;47.690;9.130;2022-08-01T08:34:40;28.70;64.10
11908;DHT22;6014;47.690;9.130;2022-08-01T08:37:09;29.30;69.00
11908;DHT22;6014;47.690;9.130;2022-08-01T08:39:38;29.50;62.30
11908;DHT22;6014;47.690;9.130;2022-08-01T08:42:09;29.40;59.80
11908;DHT22;6014;47.690;9.130;2022-08-01T08:44:38;29.80;56.80
11908;DHT22;6014;47.690;9.130;2022-08-01T08:47:12;29.40;55.50
11908;DHT22;6014;47.690;9.130;2022-08-01T08:49:47;29.50;54.40
11908;DHT22;6014;47.690;9.130;2022-08-01T08:52:18;29.90;55.80
11908;DHT22;6014;47.690;9.130;2022-08-01T08:54:48;29.50;55.50
11908;DHT22;6014;47.690;9.130;2022-08-01T08:57:19;28.80;57.70
11908;DHT22;6014;47.690;9.130;2022-08-01T08:59:49;28.20;59.30
11908;DHT22;6014;47.690;9.130;2022-08-01T09:02:22;28.30;59.80
11908;DHT22;6014;47.690;9.130;2022-08-01T09:04:51;28.60;60.90
11908;DHT22;6014;47.690;9.130;2022-08-01T09:07:19;29.50;59.30
11908;DHT22;6014;47.690;9.130;2022-08-01T09:09:50;30.20;58.80
11908;DHT22;6014;47.690;9.130;2022-08-01T09:12:19;30.80;57.30
11908;DHT22;6014;47.690;9.130;2022-08-01T09:14:48;31.00;56.40
11908;DHT22;6014;47.690;9.130;2022-08-01T09:17:22;31.10;54.70
11908;DHT22;6014;47.690;9.130;2022-08-01T09:19:52;30.60;55.50
11908;DHT22;6014;47.690;9.130;2022-08-01T09:22:24;31.00;56.00
11908;DHT22;6014;47.690;9.130;2022-08-01T09:25:00;31.40;54.10
11908;DHT22;6014;47.690;9.130;2022-08-01T09:27:31;31.90;55.90
11908;DHT22;6014;47.690;9.130;2022-08-01T09:30:11;31.40;53.40
11908;DHT22;6014;47.690;9.130;2022-08-01T09:32:56;31.10;53.30
11908;DHT22;6014;47.690;9.130;2022-08-01T09:35:33;30.90;56.10
11908;DHT22;6014;47.690;9.130;2022-08-01T09:38:16;31.00;54.70
11908;DHT22;6014;47.690;9.130;2022-08-01T09:40:49;30.70;53.40
11908;DHT22;6014;47.690;9.130;2022-08-01T09:43:20;31.60;54.20
11908;DHT22;6014;47.690;9.130;2022-08-01T09:45:49;31.70;51.40
11908;DHT22;6014;47.690;9.130;2022-08-01T09:48:21;31.00;52.70
11908;DHT22;6014;47.690;9.130;2022-08-01T09:50:56;31.20;52.70
11908;DHT22;6014;47.690;9.130;2022-08-01T09:53:46;31.50;50.60
11908;DHT22;6014;47.690;9.130;2022-08-01T09:56:20;31.60;50.80
11908;DHT22;6014;47.690;9.130;2022-08-01T09:58:51;30.10;52.00
11908;DHT22;6014;47.690;9.130;2022-08-01T10:01:26;29.90;55.00
11908;DHT22;6014;47.690;9.130;2022-08-01T10:04:11;30.60;53.80
11908;DHT22;6014;47.690;9.130;2022-08-01T10:06:43;31.10;52.80
11908;DHT22;6014;47.690;9.130;2022-08-01T10:09:27;31.00;51.80
11908;DHT22;6014;47.690;9.130;2022-08-01T10:12:08;30.40;52.50
11908;DHT22;6014;47.690;9.130;2022-08-01T10:14:42;31.00;51.90
11908;DHT22;6014;47.690;9.130;2022-08-01T10:17:13;30.50;51.20
11908;DHT22;6014;47.690;9.130;2022-08-01T10:19:47;31.20;52.90
11908;DHT22;6014;47.690;9.130;2022-08-01T10:22:21;31.50;52.50
11908;DHT22;6014;47.690;9.130;2022-08-01T10:24:55;31.20;51.40
11908;DHT22;6014;47.690;9.130;2022-08-01T10:27:25;31.40;49.20
11908;DHT22;6014;47.690;9.130;2022-08-01T10:30:06;31.10;50.20
11908;DHT22;6014;47.690;9.130;2022-08-01T10:32:48;30.70;50.60
11908;DHT22;6014;47.690;9.130;2022-08-01T10:35:22;30.80;51.20
11908;DHT22;6014;47.690;9.130;2022-08-01T10:38:11;30.80;50.50
11908;DHT22;6014;47.690;9.130;2022-08-01T10:40:40;32.10;49.30
11908;DHT22;6014;47.690;9.130;2022-08-01T10:43:10;31.90;48.80
11908;DHT22;6014;47.690;9.130;2022-08-01T10:45:39;32.00;48.30
11908;DHT22;6014;47.690;9.130;2022-08-01T10:48:12;31.40;49.50
11908;DHT22;6014;47.690;9.130;2022-08-01T10:50:49;31.40;49.10
11908;DHT22;6014;47.690;9.130;2022-08-01T10:53:21;31.10;49.40
11908;DHT22;6014;47.690;9.130;2022-08-01T10:56:08;31.90;48.30
11908;DHT22;6014;47.690;9.130;2022-08-01T10:58:46;32.60;48.40
11908;DHT22;6014;47.690;9.130;2022-08-01T11:01:23;32.70;45.70
11908;DHT22;6014;47.690;9.130;2022-08-01T11:04:12;32.30;46.30
11908;DHT22;6014;47.690;9.130;2022-08-01T11:06:53;32.20;48.00
11908;DHT22;6014;47.690;9.130;2022-08-01T11:09:30;31.90;46.60
11908;DHT22;6014;47.690;9.130;2022-08-01T11:12:07;31.20;47.40
11908;DHT22;6014;47.690;9.130;2022-08-01T11:15:18;31.50;46.80
11908;DHT22;6014;47.690;9.130;2022-08-01T11:17:58;32.40;46.20
11908;DHT22;6014;47.690;9.130;2022-08-01T11:20:29;31.60;45.50
11908;DHT22;6014;47.690;9.130;2022-08-01T11:23:26;32.00;46.90
11908;DHT22;6014;47.690;9.130;2022-08-01T11:26:22;32.70;45.50
11908;DHT22;6014;47.690;9.130;2022-08-01T11:29:16;32.40;44.10
11908;DHT22;6014;47.690;9.130;2022-08-01T11:31:49;32.20;45.30
11908;DHT22;6014;47.690;9.130;2022-08-01T11:34:19;32.50;43.70
11908;DHT22;6014;47.690;9.130;2022-08-01T11:36:48;32.80;45.40
11908;DHT22;6014;47.690;9.130;2022-08-01T11:39:27;32.80;42.20
11908;DHT22;6014;47.690;9.130;2022-08-01T11:42:18;32.70;42.50
11908;DHT22;6014;47.690;9.130;2022-08-01T11:44:48;31.80;43.20
11908;DHT22;6014;47.690;9.130;2022-08-01T11:47:21;32.10;42.90
11908;DHT22;6014;47.690;9.130;2022-08-01T11:50:35;32.40;43.50
11908;DHT22;6014;47.690;9.130;2022-08-01T11:53:06;32.60;42.20
11908;DHT22;6014;47.690;9.130;2022-08-01T11:55:45;31.90;43.30
11908;DHT22;6014;47.690;9.130;2022-08-01T11:58:21;32.40;42.70
11908;DHT22;6014;47.690;9.130;2022-08-01T12:00:58;32.80;42.80
11908;DHT22;6014;47.690;9.130;2022-08-01T12:03:29;32.90;41.80
11908;DHT22;6014;47.690;9.130;2022-08-01T12:06:00;33.30;42.80
11908;DHT22;6014;47.690;9.130;2022-08-01T12:08:30;33.20;39.40
11908;DHT22;6014;47.690;9.130;2022-08-01T12:11:03;33.00;41.90
11908;DHT22;6014;47.690;9.130;2022-08-01T12:13:39;33.20;39.40
11908;DHT22;6014;47.690;9.130;2022-08-01T12:16:10;33.40;41.20
11908;DHT22;6014;47.690;9.130;2022-08-01T12:18:41;33.90;39.80
11908;DHT22;6014;47.690;9.130;2022-08-01T12:21:10;34.00;38.40
11908;DHT22;6014;47.690;9.130;2022-08-01T12:23:38;33.50;36.40
11908;DHT22;6014;47.690;9.130;2022-08-01T12:26:07;33.60;35.90
11908;DHT22;6014;47.690;9.130;2022-08-01T12:28:55;33.40;35.60
11908;DHT22;6014;47.690;9.130;2022-08-01T12:31:31;33.10;37.00
11908;DHT22;6014;47.690;9.130;2022-08-01T12:34:28;33.50;35.90
11908;DHT22;6014;47.690;9.130;2022-08-01T12:36:59;33.40;36.00
11908;DHT22;6014;47.690;9.130;2022-08-01T12:39:32;34.00;36.80
11908;DHT22;6014;47.690;9.130;2022-08-01T12:42:01;34.10;36.40
11908;DHT22;6014;47.690;9.130;2022-08-01T12:44:33;33.70;36.50
11908;DHT22;6014;47.690;9.130;2022-08-01T12:47:04;33.70;35.80
11908;DHT22;6014;47.690;9.130;2022-08-01T12:49:37;33.00;33.30
11908;DHT22;6014;47.690;9.130;2022-08-01T12:52:06;33.50;34.30
11908;DHT22;6014;47.690;9.130;2022-08-01T12:55:07;33.80;34.20
11908;DHT22;6014;47.690;9.130;2022-08-01T12:57:39;33.70;34.90
11908;DHT22;6014;47.690;9.130;2022-08-01T13:00:18;33.80;34.90
11908;DHT22;6014;47.690;9.130;2022-08-01T13:02:59;34.40;33.60
11908;DHT22;6014;47.690;9.130;2022-08-01T13:05:40;33.90;32.70
11908;DHT22;6014;47.690;9.130;2022-08-01T13:08:11;33.90;34.70
11908;DHT22;6014;47.690;9.130;2022-08-01T13:10:42;33.80;34.30
11908;DHT22;6014;47.690;9.130;2022-08-01T13:13:12;34.40;34.20
11908;DHT22;6014;47.690;9.130;2022-08-01T13:16:04;34.90;33.10
11908;DHT22;6014;47.690;9.130;2022-08-01T13:18:48;34.40;33.70
11908;DHT22;6014;47.690;9.130;2022-08-01T13:21:19;34.80;33.00
11908;DHT22;6014;47.690;9.130;2022-08-01T13:24:03;34.80;32.00
11908;DHT22;6014;47.690;9.130;2022-08-01T13:26:45;34.80;32.10
11908;DHT22;6014;47.690;9.130;2022-08-01T13:29:17;34.90;33.10
11908;DHT22;6014;47.690;9.130;2022-08-01T13:31:47;35.20;32.30
11908;DHT22;6014;47.690;9.130;2022-08-01T13:34:16;35.00;32.00
11908;DHT22;6014;47.690;9.130;2022-08-01T13:36:47;34.30;32.70
11908;DHT22;6014;47.690;9.130;2022-08-01T13:39:15;34.40;32.40
11908;DHT22;6014;47.690;9.130;2022-08-01T13:42:01;34.30;32.30
11908;DHT22;6014;47.690;9.130;2022-08-01T13:44:31;33.50;33.30
11908;DHT22;6014;47.690;9.130;2022-08-01T13:47:00;33.70;32.90
11908;DHT22;6014;47.690;9.130;2022-08-01T13:49:41;33.40;33.80
11908;DHT22;6014;47.690;9.130;2022-08-01T13:52:11;33.00;34.60
11908;DHT22;6014;47.690;9.130;2022-08-01T13:54:39;33.20;34.60
11908;DHT22;6014;47.690;9.130;2022-08-01T13:57:08;33.60;31.90
11908;DHT22;6014;47.690;9.130;2022-08-01T13:59:37;34.10;31.60
11908;DHT22;6014;47.690;9.130;2022-08-01T14:02:06;34.00;31.00
11908;DHT22;6014;47.690;9.130;2022-08-01T14:04:35;34.30;29.80
11908;DHT22;6014;47.690;9.130;2022-08-01T14:07:03;34.70;28.80
11908;DHT22;6014;47.690;9.130;2022-08-01T14:09:41;34.90;28.80
11908;DHT22;6014;47.690;9.130;2022-08-01T14:12:23;34.50;27.90
11908;DHT22;6014;47.690;9.130;2022-08-01T14:14:52;34.70;28.00
11908;DHT22;6014;47.690;9.130;2022-08-01T14:17:20;34.80;28.00
11908;DHT22;6014;47.690;9.130;2022-08-01T14:19:49;34.40;27.60
11908;DHT22;6014;47.690;9.130;2022-08-01T14:22:17;34.50;27.60
11908;DHT22;6014;47.690;9.130;2022-08-01T14:24:47;34.80;28.30
11908;DHT22;6014;47.690;9.130;2022-08-01T14:27:16;34.70;28.10
11908;DHT22;6014;47.690;9.130;2022-08-01T14:29:44;35.10;27.80
11908;DHT22;6014;47.690;9.130;2022-08-01T14:32:29;35.60;27.20
11908;DHT22;6014;47.690;9.130;2022-08-01T14:35:00;34.80;27.60
11908;DHT22;6014;47.690;9.130;2022-08-01T14:37:28;35.30;27.10
11908;DHT22;6014;47.690;9.130;2022-08-01T14:40:06;34.70;27.30
11908;DHT22;6014;47.690;9.130;2022-08-01T14:42:36;35.10;26.70
11908;DHT22;6014;47.690;9.130;2022-08-01T14:45:07;35.40;27.00
11908;DHT22;6014;47.690;9.130;2022-08-01T14:47:36;33.70;26.40
11908;DHT22;6014;47.690;9.130;2022-08-01T14:50:06;33.00;27.20
11908;DHT22;6014;47.690;9.130;2022-08-01T14:52:38;32.40;27.80
11908;DHT22;6014;47.690;9.130;2022-08-01T14:55:10;32.00;28.30
11908;DHT22;6014;47.690;9.130;2022-08-01T14:57:40;32.30;29.40
11908;DHT22;6014;47.690;9.130;2022-08-01T15:00:10;32.70;28.30
11908;DHT22;6014;47.690;9.130;2022-08-01T15:02:41;33.80;27.70
11908;DHT22;6014;47.690;9.130;2022-08-01T15:05:10;34.30;27.50
11908;DHT22;6014;47.690;9.130;2022-08-01T15:07:38;34.00;26.90
11908;DHT22;6014;47.690;9.130;2022-08-01T15:10:19;33.90;27.40
11908;DHT22;6014;47.690;9.130;2022-08-01T15:12:48;34.10;27.10
11908;DHT22;6014;47.690;9.130;2022-08-01T15:15:17;33.60;27.30
11908;DHT22;6014;47.690;9.130;2022-08-01T15:17:46;33.90;27.70
11908;DHT22;6014;47.690;9.130;2022-08-01T15:20:15;33.50;28.40
11908;DHT22;6014;47.690;9.130;2022-08-01T15:22:43;32.60;27.80
11908;DHT22;6014;47.690;9.130;2022-08-01T15:25:12;31.90;27.80
11908;DHT22;6014;47.690;9.130;2022-08-01T15:27:42;32.00;28.70
11908;DHT22;6014;47.690;9.130;2022-08-01T15:30:11;31.80;27.60
11908;DHT22;6014;47.690;9.130;2022-08-01T15:32:41;32.00;27.90
11908;DHT22;6014;47.690;9.130;2022-08-01T15:35:10;31.70;28.00
11908;DHT22;6014;47.690;9.130;2022-08-01T15:37:39;31.80;28.60
11908;DHT22;6014;47.690;9.130;2022-08-01T15:40:10;31.50;29.60
11908;DHT22;6014;47.690;9.130;2022-08-01T15:42:39;31.60;31.90
11908;DHT22;6014;47.690;9.130;2022-08-01T15:45:10;31.70;34.20
11908;DHT22;6014;47.690;9.130;2022-08-01T15:48:03;31.20;36.30
11908;DHT22;6014;47.690;9.130;2022-08-01T15:50:31;30.80;37.00
11908;DHT22;6014;47.690;9.130;2022-08-01T15:53:00;30.50;38.90
11908;DHT22;6014;47.690;9.130;2022-08-01T15:55:29;30.30;40.20
11908;DHT22;6014;47.690;9.130;2022-08-01T15:57:57;30.20;41.90
11908;DHT22;6014;47.690;9.130;2022-08-01T16:00:27;30.80;43.30
11908;DHT22;6014;47.690;9.130;2022-08-01T16:02:59;31.00;43.50
11908;DHT22;6014;47.690;9.130;2022-08-01T16:05:28;32.40;43.70
11908;DHT22;6014;47.690;9.130;2022-08-01T16:07:56;33.30;41.00
11908;DHT22;6014;47.690;9.130;2022-08-01T16:10:28;33.50;37.80
11908;DHT22;6014;47.690;9.130;2022-08-01T16:12:56;33.30;36.20
11908;DHT22;6014;47.690;9.130;2022-08-01T16:15:34;32.70;37.20
11908;DHT22;6014;47.690;9.130;2022-08-01T16:18:04;32.70;39.00
11908;DHT22;6014;47.690;9.130;2022-08-01T16:20:34;33.30;39.40
11908;DHT22;6014;47.690;9.130;2022-08-01T16:23:10;32.70;38.20
11908;DHT22;6014;47.690;9.130;2022-08-01T16:25:38;32.60;36.80